createdAt,value
2019-02-18T00:00:03.008Z,1.98
2019-02-18T00:01:03.000Z,2.02
2019-02-18T00:02:02.989Z,2.03
2019-02-18T00:03:02.977Z,1.81
2019-02-18T00:04:02.968Z,1.88
2019-02-18T00:05:02.954Z,1.80
2019-02-18T00:06:02.947Z,1.83
2019-02-18T00:07:02.933Z,1.77
2019-02-18T00:08:02.926Z,1.59
2019-02-18T00:09:02.913Z,1.62
2019-02-18T00:10:02.902Z,1.44
2019-02-18T00:11:02.892Z,1.48
2019-02-18T00:12:02.883Z,1.42
2019-02-18T00:13:02.869Z,1.41
2019-02-18T00:14:02.860Z,1.41
2019-02-18T00:15:02.848Z,1.36
2019-02-18T00:16:02.838Z,1.24
2019-02-18T00:17:02.827Z,1.20
2019-02-18T00:18:02.818Z,1.20
2019-02-18T00:19:02.808Z,1.08
2019-02-18T00:20:02.798Z,1.06
2019-02-18T00:21:02.785Z,0.94
2019-02-18T00:22:02.775Z,0.91
2019-02-18T00:23:02.765Z,0.96
2019-02-18T00:24:02.754Z,0.79
2019-02-18T00:25:02.742Z,0.80
2019-02-18T00:26:02.733Z,0.79
2019-02-18T00:27:02.724Z,0.66
2019-02-18T00:28:03.101Z,0.68
2019-02-18T00:29:02.707Z,0.69
2019-02-18T00:30:02.689Z,0.69
2019-02-18T00:31:02.682Z,0.61
2019-02-18T00:32:02.670Z,0.62
2019-02-18T00:33:02.664Z,0.49
2019-02-18T00:34:02.653Z,0.50
2019-02-18T00:35:02.637Z,0.50
2019-02-18T00:36:02.628Z,0.38
2019-02-18T00:37:02.616Z,0.41
2019-02-18T00:38:02.608Z,0.46
2019-02-18T00:39:02.598Z,0.41
2019-02-18T00:40:02.585Z,0.36
2019-02-18T00:41:02.575Z,0.24
2019-02-18T00:42:02.565Z,0.26
2019-02-18T00:43:02.554Z,0.15
2019-02-18T00:44:02.545Z,0.26
2019-02-18T00:45:02.535Z,0.10
2019-02-18T00:46:02.522Z,0.10
2019-02-18T00:47:02.514Z,0.10
2019-02-18T00:48:02.503Z,0.15
2019-02-18T00:49:02.491Z,0.03
2019-02-18T00:50:02.482Z,-0.04
2019-02-18T00:51:02.470Z,0.00
2019-02-18T00:52:02.460Z,0.00
2019-02-18T00:53:04.078Z,0.02
2019-02-18T00:54:02.437Z,-0.04
2019-02-18T00:55:02.429Z,0.00
2019-02-18T00:56:02.417Z,-0.03
2019-02-18T00:57:02.408Z,-0.04
2019-02-18T00:58:02.397Z,-0.10
2019-02-18T00:59:02.390Z,-0.25
2019-02-18T01:00:02.380Z,-0.11
2019-02-18T01:01:02.368Z,-0.15
2019-02-18T01:02:02.355Z,-0.15
2019-02-18T01:03:02.350Z,-0.21
2019-02-18T01:04:02.333Z,-0.25
2019-02-18T01:05:02.323Z,-0.26
2019-02-18T01:06:02.312Z,-0.21
2019-02-18T01:07:02.306Z,-0.23
2019-02-18T01:08:02.291Z,-0.28
2019-02-18T01:09:02.281Z,-0.34
2019-02-18T01:10:02.272Z,-0.28
2019-02-18T01:11:02.263Z,-0.40
2019-02-18T01:12:02.250Z,-0.29
2019-02-18T01:13:02.239Z,-0.33
2019-02-18T01:14:02.233Z,-0.37
2019-02-18T01:15:02.219Z,-0.33
2019-02-18T01:16:02.209Z,-0.31
2019-02-18T01:17:02.202Z,-0.34
2019-02-18T01:18:02.188Z,-0.39
2019-02-18T01:19:02.177Z,-0.39
2019-02-18T01:20:02.164Z,-0.44
2019-02-18T01:21:02.160Z,-0.42
2019-02-18T01:22:02.145Z,-0.55
2019-02-18T01:23:02.136Z,-0.54
2019-02-18T01:24:02.129Z,-0.47
2019-02-18T01:25:02.115Z,-0.43
2019-02-18T01:26:02.104Z,-0.49
2019-02-18T01:27:02.092Z,-0.43
2019-02-18T01:28:02.082Z,-0.55
2019-02-18T01:29:02.072Z,-0.44
2019-02-18T01:30:02.061Z,-0.49
2019-02-18T01:31:02.050Z,-0.57
2019-02-18T01:32:02.041Z,-0.54
2019-02-18T01:33:02.030Z,-0.54
2019-02-18T01:34:02.018Z,-0.57
2019-02-18T01:35:02.009Z,-0.52
2019-02-18T01:36:01.999Z,-0.60
2019-02-18T01:37:01.988Z,-0.65
2019-02-18T01:38:01.977Z,-0.67
2019-02-18T01:39:01.970Z,-0.69
2019-02-18T01:40:01.962Z,-0.64
2019-02-18T01:41:01.948Z,-0.65
2019-02-18T01:42:01.936Z,-0.72
2019-02-18T01:43:01.925Z,-0.72
2019-02-18T01:44:01.916Z,-0.73
2019-02-18T01:45:01.904Z,-0.69
2019-02-18T01:46:01.892Z,-0.75
2019-02-18T01:47:01.884Z,-0.72
2019-02-18T01:48:01.875Z,-0.73
2019-02-18T01:49:01.861Z,-0.73
2019-02-18T01:50:01.857Z,-0.70
2019-02-18T01:51:01.841Z,-0.78
2019-02-18T01:52:01.832Z,-0.76
2019-02-18T01:53:01.854Z,-0.76
2019-02-18T01:54:01.813Z,-0.78
2019-02-18T01:55:01.799Z,-0.78
2019-02-18T01:56:01.792Z,-0.80
2019-02-18T01:57:01.779Z,-0.86
2019-02-18T01:58:01.768Z,-0.82
2019-02-18T01:59:01.757Z,-0.82
2019-02-18T02:00:01.747Z,-0.86
2019-02-18T02:01:01.738Z,-0.85
2019-02-18T02:02:01.725Z,-0.92
2019-02-18T02:03:01.715Z,-0.89
2019-02-18T02:04:01.711Z,-0.83
2019-02-18T02:05:01.693Z,-0.85
2019-02-18T02:06:01.685Z,-0.89
2019-02-18T02:07:01.671Z,-0.83
2019-02-18T02:08:01.664Z,-0.91
2019-02-18T02:09:01.656Z,-0.91
2019-02-18T02:10:01.641Z,-0.86
2019-02-18T02:11:01.631Z,-0.80
2019-02-18T02:12:01.625Z,-0.89
2019-02-18T02:13:01.612Z,-0.85
2019-02-18T02:14:01.599Z,-0.94
2019-02-18T02:15:01.596Z,-0.85
2019-02-18T02:16:01.579Z,-0.83
2019-02-18T02:17:01.573Z,-0.86
2019-02-18T02:18:01.557Z,-0.89
2019-02-18T02:19:01.546Z,-0.92
2019-02-18T02:20:01.541Z,-0.95
2019-02-18T02:21:01.526Z,-1.01
2019-02-18T02:22:01.517Z,-0.86
2019-02-18T02:23:01.505Z,-0.95
2019-02-18T02:24:01.496Z,-0.95
2019-02-18T02:25:01.491Z,-1.04
2019-02-18T02:26:01.473Z,-1.04
2019-02-18T02:27:01.464Z,-1.05
2019-02-18T02:28:01.455Z,-0.97
2019-02-18T02:29:01.443Z,-1.04
2019-02-18T02:30:01.445Z,-0.98
2019-02-18T02:31:01.598Z,-1.01
2019-02-18T02:32:01.414Z,-1.01
2019-02-18T02:33:01.401Z,-1.07
2019-02-18T02:34:01.392Z,-0.99
2019-02-18T02:35:01.386Z,-1.13
2019-02-18T02:36:01.369Z,-1.07
2019-02-18T02:37:01.361Z,-1.07
2019-02-18T02:38:07.829Z,-1.07
2019-02-18T02:39:02.336Z,-1.02
2019-02-18T02:40:01.328Z,-1.04
2019-02-18T02:41:01.324Z,-1.10
2019-02-18T02:42:01.306Z,-1.10
2019-02-18T02:43:01.295Z,-1.13
2019-02-18T02:44:01.286Z,-1.13
2019-02-18T02:45:01.294Z,-1.10
2019-02-18T02:46:01.270Z,-1.12
2019-02-18T02:47:01.257Z,-1.22
2019-02-18T02:48:01.244Z,-1.13
2019-02-18T02:49:01.237Z,-1.15
2019-02-18T02:50:01.232Z,-1.13
2019-02-18T02:51:01.215Z,-1.13
2019-02-18T02:52:01.206Z,-1.17
2019-02-18T02:53:01.193Z,-1.23
2019-02-18T02:54:01.180Z,-1.28
2019-02-18T02:55:01.171Z,-1.25
2019-02-18T02:56:01.161Z,-1.22
2019-02-18T02:57:01.148Z,-1.22
2019-02-18T02:58:01.141Z,-1.22
2019-02-18T02:59:01.134Z,-1.27
2019-02-18T03:00:01.125Z,-1.20
2019-02-18T03:01:01.129Z,-1.31
2019-02-18T03:02:01.099Z,-1.30
2019-02-18T03:03:01.086Z,-1.34
2019-02-18T03:04:01.078Z,-1.30
2019-02-18T03:05:01.066Z,-1.37
2019-02-18T03:06:01.054Z,-1.30
2019-02-18T03:07:01.050Z,-1.37
2019-02-18T03:08:01.048Z,-1.35
2019-02-18T03:09:01.027Z,-1.37
2019-02-18T03:10:01.015Z,-1.33
2019-02-18T03:11:01.005Z,-1.33
2019-02-18T03:12:00.994Z,-1.38
2019-02-18T03:13:00.985Z,-1.35
2019-02-18T03:14:00.975Z,-1.37
2019-02-18T03:15:00.961Z,-1.35
2019-02-18T03:16:00.951Z,-1.41
2019-02-18T03:17:00.942Z,-1.41
2019-02-18T03:18:00.933Z,-1.41
2019-02-18T03:19:00.929Z,-1.45
2019-02-18T03:20:00.915Z,-1.41
2019-02-18T03:21:00.900Z,-1.45
2019-02-18T03:22:00.888Z,-1.40
2019-02-18T03:23:00.881Z,-1.52
2019-02-18T03:24:00.871Z,-1.52
2019-02-18T03:25:00.856Z,-1.54
2019-02-18T03:26:00.850Z,-1.54
2019-02-18T03:27:00.837Z,-1.49
2019-02-18T03:28:00.826Z,-1.58
2019-02-18T03:29:00.819Z,-1.56
2019-02-18T03:30:00.812Z,-1.58
2019-02-18T03:31:00.800Z,-1.56
2019-02-18T03:32:00.792Z,-1.48
2019-02-18T03:33:00.785Z,-1.61
2019-02-18T03:34:00.774Z,-1.51
2019-02-18T03:35:01.227Z,-1.58
2019-02-18T03:36:00.749Z,-1.56
2019-02-18T03:37:00.732Z,-1.51
2019-02-18T03:38:00.724Z,-1.59
2019-02-18T03:39:00.711Z,-1.61
2019-02-18T03:40:00.731Z,-1.62
2019-02-18T03:41:03.399Z,-1.55
2019-02-18T03:42:00.681Z,-1.66
2019-02-18T03:43:00.676Z,-1.61
2019-02-18T03:44:00.660Z,-1.62
2019-02-18T03:45:00.651Z,-1.62
2019-02-18T03:46:00.638Z,-1.70
2019-02-18T03:47:00.629Z,-1.69
2019-02-18T03:48:00.616Z,-1.76
2019-02-18T03:49:00.607Z,-1.67
2019-02-18T03:50:00.627Z,-1.77
2019-02-18T03:51:00.585Z,-1.70
2019-02-18T03:52:00.586Z,-1.77
2019-02-18T03:53:00.566Z,-1.72
2019-02-18T03:54:00.553Z,-1.73
2019-02-18T03:55:00.543Z,-1.74
2019-02-18T03:56:00.535Z,-1.77
2019-02-18T03:57:00.523Z,-1.74
2019-02-18T03:58:00.512Z,-1.87
2019-02-18T03:59:00.503Z,-1.80
2019-02-18T04:00:00.492Z,-1.73
2019-02-18T04:01:00.481Z,-1.74
2019-02-18T04:02:00.484Z,-1.80
2019-02-18T04:03:00.462Z,-1.82
2019-02-18T04:04:00.452Z,-1.67
2019-02-18T04:05:00.438Z,-1.73
2019-02-18T04:06:00.429Z,-1.74
2019-02-18T04:07:00.417Z,-1.82
2019-02-18T04:08:00.409Z,-1.79
2019-02-18T04:09:00.398Z,-1.74
2019-02-18T04:10:00.440Z,-1.87
2019-02-18T04:11:00.378Z,-1.77
2019-02-18T04:12:00.367Z,-1.87
2019-02-18T04:13:00.360Z,-1.84
2019-02-18T04:14:00.343Z,-1.87
2019-02-18T04:15:00.515Z,-1.88
2019-02-18T04:16:00.324Z,-1.94
2019-02-18T04:17:00.320Z,-1.88
2019-02-18T04:18:00.303Z,-1.84
2019-02-18T04:19:00.293Z,-1.88
2019-02-18T04:20:00.325Z,-1.92
2019-02-18T04:21:00.272Z,-1.88
2019-02-18T04:22:00.262Z,-1.82
2019-02-18T04:23:00.251Z,-1.92
2019-02-18T04:24:00.241Z,-2.02
2019-02-18T04:25:00.333Z,-2.03
2019-02-18T04:26:00.219Z,-1.92
2019-02-18T04:27:00.209Z,-1.95
2019-02-18T04:28:00.200Z,-1.95
2019-02-18T04:29:00.188Z,-1.98
2019-02-18T04:30:00.403Z,-1.98
2019-02-18T04:31:00.166Z,-2.02
2019-02-18T04:32:00.159Z,-1.98
2019-02-18T04:33:00.146Z,-1.98
2019-02-18T04:34:00.140Z,-2.02
2019-02-18T04:35:00.239Z,-2.00
2019-02-18T04:36:00.114Z,-2.03
2019-02-18T04:37:00.111Z,-2.02
2019-02-18T04:38:00.096Z,-2.05
2019-02-18T04:39:00.083Z,-2.02
2019-02-18T04:40:00.419Z,-1.98
2019-02-18T04:41:00.063Z,-2.03
2019-02-18T04:42:00.052Z,-2.09
2019-02-18T04:43:00.041Z,-2.03
2019-02-18T04:44:00.033Z,-2.09
2019-02-18T04:45:00.085Z,-2.03
2019-02-18T04:46:00.017Z,-2.05
2019-02-18T04:46:59.999Z,-2.06
2019-02-18T04:47:59.989Z,-2.05
2019-02-18T04:48:59.981Z,-1.97
2019-02-18T04:49:59.972Z,-2.00
2019-02-18T04:50:59.959Z,-2.03
2019-02-18T04:51:59.948Z,-2.08
2019-02-18T04:52:59.936Z,-2.08
2019-02-18T04:53:59.928Z,-2.10
2019-02-18T04:54:59.919Z,-2.03
2019-02-18T04:55:59.906Z,-2.02
2019-02-18T04:56:59.896Z,-2.00
2019-02-18T04:57:59.886Z,-2.13
2019-02-18T04:58:59.878Z,-2.12
2019-02-18T04:59:59.864Z,-2.15
2019-02-18T05:01:02.811Z,-2.20
2019-02-18T05:01:59.846Z,-2.18
2019-02-18T05:02:59.835Z,-2.15
2019-02-18T05:03:59.821Z,-2.08
2019-02-18T05:04:59.867Z,-2.21
2019-02-18T05:05:59.806Z,-2.10
2019-02-18T05:06:59.793Z,-2.12
2019-02-18T05:07:59.780Z,-2.18
2019-02-18T05:09:05.401Z,-2.18
2019-02-18T05:10:00.763Z,-2.13
2019-02-18T05:10:59.751Z,-2.16
2019-02-18T05:11:59.739Z,-2.10
2019-02-18T05:12:59.730Z,-2.09
2019-02-18T05:13:59.720Z,-2.00
2019-02-18T05:14:59.708Z,-2.08
2019-02-18T05:15:59.698Z,-2.03
2019-02-18T05:16:59.686Z,-2.03
2019-02-18T05:17:59.679Z,-2.18
2019-02-18T05:18:59.666Z,-2.12
2019-02-18T05:19:59.657Z,-2.15
2019-02-18T05:20:59.644Z,-2.08
2019-02-18T05:21:59.634Z,-2.15
2019-02-18T05:22:59.624Z,-2.09
2019-02-18T05:23:59.614Z,-2.12
2019-02-18T05:24:59.603Z,-2.03
2019-02-18T05:25:59.592Z,-2.15
2019-02-18T05:26:59.581Z,-2.10
2019-02-18T05:27:59.580Z,-2.10
2019-02-18T05:28:59.561Z,-2.09
2019-02-18T05:29:59.552Z,-2.15
2019-02-18T05:30:59.542Z,-2.23
2019-02-18T05:31:59.533Z,-2.18
2019-02-18T05:32:59.536Z,-2.23
2019-02-18T05:33:59.512Z,-2.21
2019-02-18T05:34:59.500Z,-2.21
2019-02-18T05:35:59.488Z,-2.27
2019-02-18T05:36:59.478Z,-2.23
2019-02-18T05:37:59.472Z,-2.21
2019-02-18T05:38:59.458Z,-2.29
2019-02-18T05:39:59.447Z,-2.24
2019-02-18T05:40:59.438Z,-2.26
2019-02-18T05:41:59.425Z,-2.24
2019-02-18T05:42:59.419Z,-2.24
2019-02-18T05:43:59.406Z,-2.34
2019-02-18T05:44:59.400Z,-2.32
2019-02-18T05:45:59.386Z,-2.32
2019-02-18T05:46:59.373Z,-2.34
2019-02-18T05:47:59.366Z,-2.30
2019-02-18T05:48:59.353Z,-2.37
2019-02-18T05:49:59.342Z,-2.37
2019-02-18T05:50:59.334Z,-2.37
2019-02-18T05:51:59.323Z,-2.32
2019-02-18T05:52:59.310Z,-2.40
2019-02-18T05:53:59.302Z,-2.42
2019-02-18T05:54:59.295Z,-2.43
2019-02-18T05:55:59.280Z,-2.43
2019-02-18T05:56:59.268Z,-2.46
2019-02-18T05:57:59.258Z,-2.49
2019-02-18T05:58:59.249Z,-2.43
2019-02-18T05:59:59.247Z,-2.45
2019-02-18T06:00:59.229Z,-2.45
2019-02-18T06:01:59.224Z,-2.50
2019-02-18T06:02:59.207Z,-2.48
2019-02-18T06:04:00.190Z,-2.40
2019-02-18T06:04:59.198Z,-2.43
2019-02-18T06:05:59.183Z,-2.52
2019-02-18T06:06:59.205Z,-2.50
2019-02-18T06:07:59.158Z,-2.42
2019-02-18T06:08:59.147Z,-2.43
2019-02-18T06:09:59.134Z,-2.49
2019-02-18T06:10:59.173Z,-2.48
2019-02-18T06:11:59.115Z,-2.43
2019-02-18T06:12:59.116Z,-2.46
2019-02-18T06:13:59.093Z,-2.45
2019-02-18T06:14:59.081Z,-2.46
2019-02-18T06:15:59.071Z,-2.45
2019-02-18T06:16:59.059Z,-2.49
2019-02-18T06:17:59.051Z,-2.50
2019-02-18T06:18:59.042Z,-2.48
2019-02-18T06:19:59.031Z,-2.48
2019-02-18T06:20:59.020Z,-2.45
2019-02-18T06:21:59.033Z,-2.34
2019-02-18T06:22:59.021Z,-2.40
2019-02-18T06:23:58.992Z,-2.39
2019-02-18T06:24:58.975Z,-2.39
2019-02-18T06:25:58.967Z,-2.40
2019-02-18T06:26:58.956Z,-2.48
2019-02-18T06:27:58.944Z,-2.40
2019-02-18T06:28:58.937Z,-2.45
2019-02-18T06:29:58.925Z,-2.32
2019-02-18T06:30:58.914Z,-2.35
2019-02-18T06:31:58.908Z,-2.35
2019-02-18T06:33:01.065Z,-2.35
2019-02-18T06:33:58.936Z,-2.27
2019-02-18T06:34:58.871Z,-2.26
2019-02-18T06:35:58.863Z,-2.26
2019-02-18T06:36:58.856Z,-2.35
2019-02-18T06:37:58.840Z,-2.27
2019-02-18T06:38:58.830Z,-2.29
2019-02-18T06:39:58.824Z,-2.34
2019-02-18T06:40:58.813Z,-2.26
2019-02-18T06:41:58.805Z,-2.18
2019-02-18T06:42:58.789Z,-2.12
2019-02-18T06:43:58.777Z,-2.10
2019-02-18T06:44:58.766Z,-2.12
2019-02-18T06:45:58.756Z,-1.98
2019-02-18T06:46:58.746Z,-2.03
2019-02-18T06:47:58.736Z,-1.98
2019-02-18T06:48:58.724Z,-2.09
2019-02-18T06:49:58.715Z,-2.09
2019-02-18T06:50:58.709Z,-2.05
2019-02-18T06:51:58.694Z,-2.02
2019-02-18T06:52:58.687Z,-2.03
2019-02-18T06:53:58.674Z,-2.06
2019-02-18T06:54:58.664Z,-2.05
2019-02-18T06:55:58.653Z,-1.95
2019-02-18T06:56:58.645Z,-1.94
2019-02-18T06:57:58.631Z,-1.84
2019-02-18T06:58:58.622Z,-1.88
2019-02-18T06:59:58.610Z,-1.77
2019-02-18T07:00:58.600Z,-1.74
2019-02-18T07:01:58.592Z,-1.85
2019-02-18T07:02:58.579Z,-1.76
2019-02-18T07:03:58.570Z,-1.76
2019-02-18T07:04:58.558Z,-1.69
2019-02-18T07:05:58.550Z,-1.62
2019-02-18T07:06:58.540Z,-1.59
2019-02-18T07:07:58.533Z,-1.51
2019-02-18T07:08:58.516Z,-1.56
2019-02-18T07:09:58.508Z,-1.49
2019-02-18T07:10:58.495Z,-1.49
2019-02-18T07:11:58.485Z,-1.37
2019-02-18T07:12:58.475Z,-1.35
2019-02-18T07:13:58.470Z,-1.28
2019-02-18T07:14:58.454Z,-1.19
2019-02-18T07:15:58.445Z,-1.13
2019-02-18T07:16:58.433Z,-1.07
2019-02-18T07:17:58.422Z,-1.01
2019-02-18T07:18:58.411Z,-0.91
2019-02-18T07:19:58.404Z,-0.79
2019-02-18T07:20:58.394Z,-0.82
2019-02-18T07:21:58.385Z,-0.73
2019-02-18T07:22:58.371Z,-0.72
2019-02-18T07:23:58.363Z,-0.61
2019-02-18T07:24:58.352Z,-0.54
2019-02-18T07:25:58.341Z,-0.46
2019-02-18T07:26:58.334Z,-0.42
2019-02-18T07:27:58.320Z,-0.42
2019-02-18T07:28:58.310Z,-0.31
2019-02-18T07:29:58.299Z,-0.31
2019-02-18T07:30:58.289Z,-0.21
2019-02-18T07:31:58.279Z,-0.18
2019-02-18T07:32:58.270Z,-0.14
2019-02-18T07:33:58.264Z,-0.10
2019-02-18T07:34:58.248Z,-0.04
2019-02-18T07:35:58.248Z,-0.01
2019-02-18T07:36:58.226Z,0.07
2019-02-18T07:37:58.216Z,0.10
2019-02-18T07:39:05.160Z,0.17
2019-02-18T07:40:01.893Z,0.28
2019-02-18T07:40:58.187Z,0.35
2019-02-18T07:41:58.172Z,0.41
2019-02-18T07:42:58.161Z,0.51
2019-02-18T07:43:58.162Z,0.51
2019-02-18T07:44:58.139Z,0.66
2019-02-18T07:45:58.129Z,0.76
2019-02-18T07:46:58.120Z,0.84
2019-02-18T07:47:58.111Z,0.98
2019-02-18T07:48:58.097Z,1.04
2019-02-18T07:49:58.087Z,1.20
2019-02-18T07:50:58.078Z,1.32
2019-02-18T07:51:58.067Z,1.44
2019-02-18T07:52:58.056Z,1.45
2019-02-18T07:53:58.044Z,1.63
2019-02-18T07:54:58.036Z,1.76
2019-02-18T07:55:58.024Z,2.06
2019-02-18T07:56:58.015Z,2.24
2019-02-18T07:57:58.003Z,2.82
2019-02-18T07:58:57.991Z,3.68
2019-02-18T07:59:57.981Z,4.41
2019-02-18T08:00:57.979Z,5.15
2019-02-18T08:01:57.959Z,5.54
2019-02-18T08:02:57.954Z,6.00
2019-02-18T08:03:57.939Z,6.31
2019-02-18T08:04:57.930Z,6.73
2019-02-18T08:05:57.919Z,6.76
2019-02-18T08:06:57.911Z,7.16
2019-02-18T08:07:57.896Z,7.43
2019-02-18T08:08:57.889Z,7.79
2019-02-18T08:09:57.874Z,7.98
2019-02-18T08:10:57.864Z,8.10
2019-02-18T08:11:57.853Z,8.26
2019-02-18T08:12:57.844Z,8.50
2019-02-18T08:13:57.835Z,8.65
2019-02-18T08:14:57.824Z,9.02
2019-02-18T08:15:57.813Z,9.35
2019-02-18T08:16:57.802Z,9.90
2019-02-18T08:17:57.790Z,10.14
2019-02-18T08:18:57.779Z,10.23
2019-02-18T08:19:57.772Z,10.42
2019-02-18T08:20:57.756Z,10.73
2019-02-18T08:21:57.747Z,11.06
2019-02-18T08:22:57.737Z,11.43
2019-02-18T08:24:00.302Z,11.54
2019-02-18T08:24:57.716Z,11.78
2019-02-18T08:25:57.705Z,11.96
2019-02-18T08:26:57.702Z,11.86
2019-02-18T08:27:57.683Z,11.90
2019-02-18T08:28:57.672Z,11.55
2019-02-18T08:29:57.662Z,11.46
2019-02-18T08:30:57.650Z,11.11
2019-02-18T08:31:57.638Z,10.61
2019-02-18T08:32:57.628Z,10.20
2019-02-18T08:33:57.620Z,10.12
2019-02-18T08:34:57.607Z,10.60
2019-02-18T08:35:57.597Z,10.99
2019-02-18T08:36:57.594Z,11.09
2019-02-18T08:37:57.576Z,11.11
2019-02-18T08:38:57.565Z,11.37
2019-02-18T08:39:57.557Z,11.52
2019-02-18T08:40:57.541Z,11.76
2019-02-18T08:41:57.532Z,11.99
2019-02-18T08:42:57.523Z,12.21
2019-02-18T08:43:57.510Z,12.47
2019-02-18T08:44:57.498Z,12.17
2019-02-18T08:45:57.487Z,12.20
2019-02-18T08:46:57.476Z,11.91
2019-02-18T08:47:57.465Z,11.17
2019-02-18T08:48:57.456Z,11.39
2019-02-18T08:49:57.445Z,11.73
2019-02-18T08:50:57.437Z,11.90
2019-02-18T08:51:57.422Z,12.17
2019-02-18T08:52:57.411Z,12.10
2019-02-18T08:53:57.400Z,12.24
2019-02-18T08:54:57.411Z,12.13
2019-02-18T08:55:57.379Z,12.17
2019-02-18T08:56:57.367Z,12.37
2019-02-18T08:57:57.358Z,12.57
2019-02-18T08:58:57.347Z,12.56
2019-02-18T08:59:57.335Z,12.67
2019-02-18T09:01:02.572Z,12.72
2019-02-18T09:01:58.313Z,13.05
2019-02-18T09:02:57.302Z,13.11
2019-02-18T09:03:57.293Z,13.01
2019-02-18T09:04:57.289Z,13.08
2019-02-18T09:05:57.275Z,13.17
2019-02-18T09:06:57.264Z,13.14
2019-02-18T09:07:57.253Z,12.83
2019-02-18T09:08:57.240Z,13.20
2019-02-18T09:09:57.227Z,13.44
2019-02-18T09:10:57.217Z,13.48
2019-02-18T09:11:57.239Z,13.71
2019-02-18T09:12:57.195Z,13.77
2019-02-18T09:13:57.191Z,14.02
2019-02-18T09:14:57.178Z,13.29
2019-02-18T09:15:59.990Z,12.71
2019-02-18T09:16:57.152Z,12.67
2019-02-18T09:17:57.199Z,13.26
2019-02-18T09:18:57.132Z,13.89
2019-02-18T09:19:57.124Z,14.27
2019-02-18T09:20:57.110Z,14.65
2019-02-18T09:21:57.101Z,14.60
2019-02-18T09:22:57.150Z,14.72
2019-02-18T09:23:57.078Z,15.07
2019-02-18T09:24:57.070Z,14.40
2019-02-18T09:25:57.058Z,14.52
2019-02-18T09:26:57.044Z,14.81
2019-02-18T09:27:57.034Z,15.07
2019-02-18T09:28:57.022Z,15.23
2019-02-18T09:29:57.016Z,15.43
2019-02-18T09:30:57.004Z,15.50
2019-02-18T09:31:56.992Z,15.68
2019-02-18T09:32:56.980Z,15.19
2019-02-18T09:33:56.971Z,14.52
2019-02-18T09:35:01.942Z,14.92
2019-02-18T09:35:57.950Z,15.11
2019-02-18T09:36:56.940Z,15.34
2019-02-18T09:37:56.928Z,15.86
2019-02-18T09:38:56.919Z,15.94
2019-02-18T09:39:56.912Z,16.01
2019-02-18T09:40:56.895Z,16.33
2019-02-18T09:41:56.887Z,16.20
2019-02-18T09:42:56.874Z,15.68
2019-02-18T09:43:56.864Z,15.72
2019-02-18T09:44:56.851Z,16.21
2019-02-18T09:45:56.842Z,16.43
2019-02-18T09:46:56.831Z,16.68
2019-02-18T09:47:56.826Z,16.34
2019-02-18T09:48:56.811Z,16.38
2019-02-18T09:49:56.802Z,16.64
2019-02-18T09:50:56.791Z,16.66
2019-02-18T09:51:56.782Z,16.71
2019-02-18T09:52:56.770Z,16.81
2019-02-18T09:53:56.762Z,16.33
2019-02-18T09:54:56.747Z,16.09
2019-02-18T09:55:56.738Z,16.17
2019-02-18T09:56:56.725Z,16.88
2019-02-18T09:57:56.717Z,16.71
2019-02-18T09:58:56.703Z,16.56
2019-02-18T09:59:56.697Z,16.73
2019-02-18T10:00:56.684Z,16.33
2019-02-18T10:01:56.672Z,16.11
2019-02-18T10:02:56.661Z,15.92
2019-02-18T10:03:56.650Z,15.89
2019-02-18T10:04:56.642Z,15.53
2019-02-18T10:05:56.629Z,15.68
2019-02-18T10:06:56.634Z,15.96
2019-02-18T10:07:56.608Z,16.66
2019-02-18T10:08:56.614Z,16.48
2019-02-18T10:09:56.587Z,16.63
2019-02-18T10:10:56.666Z,16.93
2019-02-18T10:11:56.567Z,17.16
2019-02-18T10:12:56.559Z,17.40
2019-02-18T10:13:56.548Z,16.96
2019-02-18T10:14:56.538Z,17.00
2019-02-18T10:15:56.527Z,16.68
2019-02-18T10:16:56.518Z,16.28
2019-02-18T10:17:56.505Z,16.17
2019-02-18T10:18:56.492Z,16.09
2019-02-18T10:19:56.484Z,16.24
2019-02-18T10:20:56.481Z,16.15
2019-02-18T10:21:56.464Z,16.14
2019-02-18T10:22:56.450Z,16.38
2019-02-18T10:23:56.438Z,17.07
2019-02-18T10:24:56.431Z,17.04
2019-02-18T10:25:56.417Z,17.52
2019-02-18T10:26:56.407Z,17.54
2019-02-18T10:27:56.396Z,17.63
2019-02-18T10:28:56.385Z,17.86
2019-02-18T10:29:56.377Z,18.02
2019-02-18T10:30:56.365Z,18.45
2019-02-18T10:31:56.354Z,18.80
2019-02-18T10:32:56.345Z,18.82
2019-02-18T10:33:56.334Z,18.57
2019-02-18T10:34:56.323Z,19.07
2019-02-18T10:35:56.314Z,19.06
2019-02-18T10:36:56.301Z,18.62
2019-02-18T10:37:56.292Z,18.62
2019-02-18T10:38:56.280Z,17.82
2019-02-18T10:39:56.272Z,17.33
2019-02-18T10:41:06.169Z,17.49
2019-02-18T10:41:57.247Z,17.48
2019-02-18T10:42:56.244Z,17.71
2019-02-18T10:43:56.232Z,17.66
2019-02-18T10:44:56.219Z,17.03
2019-02-18T10:45:56.207Z,16.81
2019-02-18T10:46:56.197Z,16.79
2019-02-18T10:47:56.190Z,17.21
2019-02-18T10:48:56.176Z,17.48
2019-02-18T10:49:56.166Z,17.18
2019-02-18T10:50:56.161Z,16.85
2019-02-18T10:51:56.151Z,16.88
2019-02-18T10:52:56.141Z,17.54
2019-02-18T10:53:56.122Z,17.26
2019-02-18T10:54:56.165Z,17.37
2019-02-18T10:55:56.102Z,17.77
2019-02-18T10:56:56.091Z,17.68
2019-02-18T10:57:56.080Z,17.72
2019-02-18T10:58:56.070Z,18.29
2019-02-18T10:59:56.059Z,18.90
2019-02-18T11:00:56.048Z,19.06
2019-02-18T11:01:56.040Z,18.62
2019-02-18T11:02:56.028Z,18.55
2019-02-18T11:03:56.016Z,18.91
2019-02-18T11:04:56.006Z,19.31
2019-02-18T11:05:55.995Z,19.55
2019-02-18T11:06:55.985Z,19.04
2019-02-18T11:07:55.978Z,18.44
2019-02-18T11:08:55.964Z,18.75
2019-02-18T11:09:55.954Z,19.36
2019-02-18T11:10:55.945Z,19.48
2019-02-18T11:11:55.933Z,19.56
2019-02-18T11:12:55.921Z,18.84
2019-02-18T11:13:55.912Z,18.84
2019-02-18T11:14:55.901Z,19.08
2019-02-18T11:15:55.891Z,19.73
2019-02-18T11:16:55.882Z,19.63
2019-02-18T11:17:55.870Z,18.98
2019-02-18T11:18:55.860Z,17.86
2019-02-18T11:19:55.850Z,18.07
2019-02-18T11:20:55.838Z,17.78
2019-02-18T11:21:55.826Z,18.42
2019-02-18T11:22:55.823Z,19.08
2019-02-18T11:23:55.807Z,19.19
2019-02-18T11:24:55.794Z,19.18
2019-02-18T11:25:55.785Z,19.19
2019-02-18T11:26:55.775Z,19.32
2019-02-18T11:27:55.766Z,19.74
2019-02-18T11:28:55.755Z,20.16
2019-02-18T11:29:55.743Z,19.44
2019-02-18T11:30:55.732Z,19.36
2019-02-18T11:31:55.724Z,19.91
2019-02-18T11:32:55.712Z,20.13
2019-02-18T11:33:55.703Z,20.17
2019-02-18T11:34:55.690Z,20.24
2019-02-18T11:35:55.682Z,19.65
2019-02-18T11:36:55.673Z,19.48
2019-02-18T11:37:55.660Z,19.91
2019-02-18T11:38:55.653Z,19.92
2019-02-18T11:39:55.641Z,19.98
2019-02-18T11:40:55.633Z,20.35
2019-02-18T11:41:55.620Z,20.99
2019-02-18T11:42:55.612Z,21.22
2019-02-18T11:43:55.604Z,20.85
2019-02-18T11:44:55.594Z,21.22
2019-02-18T11:45:55.583Z,21.91
2019-02-18T11:46:55.573Z,21.52
2019-02-18T11:47:55.562Z,20.76
2019-02-18T11:48:55.549Z,20.26
2019-02-18T11:49:55.540Z,19.84
2019-02-18T11:50:55.528Z,19.77
2019-02-18T11:51:55.518Z,19.96
2019-02-18T11:52:55.509Z,20.70
2019-02-18T11:53:55.498Z,21.37
2019-02-18T11:54:55.488Z,20.85
2019-02-18T11:55:55.478Z,19.99
2019-02-18T11:56:55.465Z,20.41
2019-02-18T11:57:55.457Z,20.67
2019-02-18T11:58:55.449Z,20.66
2019-02-18T11:59:55.437Z,21.07
2019-02-18T12:00:55.433Z,21.14
2019-02-18T12:01:55.418Z,21.86
2019-02-18T12:03:02.846Z,21.94
2019-02-18T12:03:56.390Z,21.03
2019-02-18T12:04:55.380Z,20.33
2019-02-18T12:05:55.370Z,20.35
2019-02-18T12:06:55.357Z,20.41
2019-02-18T12:07:55.361Z,20.91
2019-02-18T12:08:55.338Z,21.25
2019-02-18T12:09:55.326Z,20.99
2019-02-18T12:10:55.317Z,21.04
2019-02-18T12:11:55.305Z,21.59
2019-02-18T12:12:55.991Z,22.35
2019-02-18T12:13:55.285Z,22.83
2019-02-18T12:14:55.276Z,22.73
2019-02-18T12:15:55.264Z,21.91
2019-02-18T12:16:55.255Z,21.59
2019-02-18T12:17:55.242Z,21.98
2019-02-18T12:18:55.232Z,21.94
2019-02-18T12:19:55.222Z,21.74
2019-02-18T12:20:55.217Z,22.00
2019-02-18T12:21:55.203Z,22.05
2019-02-18T12:22:55.192Z,21.88
2019-02-18T12:23:55.181Z,21.64
2019-02-18T12:24:55.176Z,21.88
2019-02-18T12:25:55.161Z,21.96
2019-02-18T12:26:55.155Z,22.10
2019-02-18T12:27:55.144Z,21.92
2019-02-18T12:28:55.131Z,21.86
2019-02-18T12:29:55.122Z,21.92
2019-02-18T12:30:55.116Z,21.86
2019-02-18T12:31:55.102Z,22.02
2019-02-18T12:32:55.092Z,21.72
2019-02-18T12:33:55.079Z,21.07
2019-02-18T12:34:55.073Z,21.03
2019-02-18T12:35:55.061Z,21.06
2019-02-18T12:36:55.050Z,20.66
2019-02-18T12:37:55.731Z,21.01
2019-02-18T12:38:55.035Z,21.13
2019-02-18T12:39:55.019Z,21.46
2019-02-18T12:40:55.006Z,20.73
2019-02-18T12:41:54.994Z,20.69
2019-02-18T12:42:54.983Z,21.17
2019-02-18T12:43:54.976Z,21.27
2019-02-18T12:44:54.964Z,21.34
2019-02-18T12:45:54.957Z,21.53
2019-02-18T12:46:54.952Z,21.14
2019-02-18T12:47:54.941Z,20.36
2019-02-18T12:48:54.922Z,20.51
2019-02-18T12:49:54.914Z,20.59
2019-02-18T12:50:54.903Z,20.29
2019-02-18T12:51:54.890Z,20.24
2019-02-18T12:52:54.879Z,20.20
2019-02-18T12:54:04.571Z,19.69
2019-02-18T12:54:55.911Z,19.50